sensor_id;sensor_type;location;lat;lon;timestamp;P1;durP1;ratioP1;P2;durP2;ratioP2
74867;SDS011;63419;42.262;12.210;2022-11-13T00:03:58;6.43;;;2.30;;
74867;SDS011;63419;42.262;12.210;2022-11-13T00:06:26;6.70;;;2.13;;
74867;SDS011;63419;42.262;12.210;2022-11-13T00:08:53;5.65;;;2.05;;
74867;SDS011;63419;42.262;12.210;2022-11-13T00:11:23;12.95;;;4.93;;
74867;SDS011;63419;42.262;12.210;2022-11-13T00:13:52;6.70;;;2.10;;
74867;SDS011;63419;42.262;12.210;2022-11-13T00:16:20;7.72;;;1.92;;
74867;SDS011;63419;42.262;12.210;2022-11-13T00:18:50;5.53;;;1.70;;
74867;SDS011;63419;42.262;12.210;2022-11-13T00:21:19;6.38;;;1.73;;
74867;SDS011;63419;42.262;12.210;2022-11-13T00:23:52;5.25;;;1.30;;
74867;SDS011;63419;42.262;12.210;2022-11-13T00:26:23;4.78;;;1.55;;
74867;SDS011;63419;42.262;12.210;2022-11-13T00:28:56;4.80;;;1.30;;
74867;SDS011;63419;42.262;12.210;2022-11-13T00:31:25;4.32;;;1.25;;
74867;SDS011;63419;42.262;12.210;2022-11-13T00:33:54;4.55;;;1.20;;
74867;SDS011;63419;42.262;12.210;2022-11-13T00:36:45;4.43;;;1.23;;
74867;SDS011;63419;42.262;12.210;2022-11-13T00:39:12;4.30;;;1.25;;
74867;SDS011;63419;42.262;12.210;2022-11-13T00:41:39;3.72;;;1.13;;
74867;SDS011;63419;42.262;12.210;2022-11-13T00:44:06;4.07;;;0.93;;
74867;SDS011;63419;42.262;12.210;2022-11-13T00:46:37;3.60;;;1.05;;
74867;SDS011;63419;42.262;12.210;2022-11-13T00:49:04;5.45;;;1.30;;
74867;SDS011;63419;42.262;12.210;2022-11-13T00:51:34;5.13;;;1.67;;
74867;SDS011;63419;42.262;12.210;2022-11-13T00:54:04;4.93;;;1.10;;
74867;SDS011;63419;42.262;12.210;2022-11-13T00:56:31;3.90;;;1.15;;
74867;SDS011;63419;42.262;12.210;2022-11-13T00:58:58;4.32;;;1.20;;
74867;SDS011;63419;42.262;12.210;2022-11-13T01:01:28;5.68;;;1.67;;
74867;SDS011;63419;42.262;12.210;2022-11-13T01:03:55;4.97;;;1.63;;
74867;SDS011;63419;42.262;12.210;2022-11-13T01:06:26;6.22;;;1.63;;
74867;SDS011;63419;42.262;12.210;2022-11-13T01:08:58;6.15;;;1.55;;
74867;SDS011;63419;42.262;12.210;2022-11-13T01:11:29;6.13;;;1.60;;
74867;SDS011;63419;42.262;12.210;2022-11-13T01:13:59;7.30;;;2.25;;
74867;SDS011;63419;42.262;12.210;2022-11-13T01:16:30;5.28;;;1.98;;
74867;SDS011;63419;42.262;12.210;2022-11-13T01:19:02;5.85;;;1.63;;
74867;SDS011;63419;42.262;12.210;2022-11-13T01:21:29;5.68;;;1.15;;
74867;SDS011;63419;42.262;12.210;2022-11-13T01:23:59;6.47;;;1.48;;
74867;SDS011;63419;42.262;12.210;2022-11-13T01:26:28;4.53;;;1.33;;
74867;SDS011;63419;42.262;12.210;2022-11-13T01:28:56;4.78;;;1.35;;
74867;SDS011;63419;42.262;12.210;2022-11-13T01:31:28;4.15;;;1.08;;
74867;SDS011;63419;42.262;12.210;2022-11-13T01:34:03;5.07;;;1.40;;
74867;SDS011;63419;42.262;12.210;2022-11-13T01:36:30;4.55;;;1.10;;
74867;SDS011;63419;42.262;12.210;2022-11-13T01:38:57;5.40;;;1.52;;
74867;SDS011;63419;42.262;12.210;2022-11-13T01:43:58;3.78;;;1.17;;
74867;SDS011;63419;42.262;12.210;2022-11-13T01:46:33;4.72;;;1.10;;
74867;SDS011;63419;42.262;12.210;2022-11-13T01:49:35;4.15;;;0.98;;
74867;SDS011;63419;42.262;12.210;2022-11-13T01:52:19;3.13;;;0.75;;
74867;SDS011;63419;42.262;12.210;2022-11-13T01:54:58;4.20;;;0.88;;
74867;SDS011;63419;42.262;12.210;2022-11-13T01:57:38;3.63;;;0.82;;
74867;SDS011;63419;42.262;12.210;2022-11-13T02:00:08;5.80;;;1.30;;
74867;SDS011;63419;42.262;12.210;2022-11-13T02:02:39;4.22;;;0.90;;
74867;SDS011;63419;42.262;12.210;2022-11-13T02:05:06;4.18;;;1.15;;
74867;SDS011;63419;42.262;12.210;2022-11-13T02:07:34;3.92;;;1.13;;
74867;SDS011;63419;42.262;12.210;2022-11-13T02:10:11;4.80;;;0.98;;
74867;SDS011;63419;42.262;12.210;2022-11-13T02:12:41;5.45;;;0.90;;
74867;SDS011;63419;42.262;12.210;2022-11-13T02:15:14;3.10;;;0.77;;
74867;SDS011;63419;42.262;12.210;2022-11-13T02:17:54;5.70;;;1.10;;
74867;SDS011;63419;42.262;12.210;2022-11-13T02:23:53;4.30;;;0.95;;
74867;SDS011;63419;42.262;12.210;2022-11-13T02:27:06;4.15;;;1.00;;
74867;SDS011;63419;42.262;12.210;2022-11-13T02:29:47;6.05;;;1.15;;
74867;SDS011;63419;42.262;12.210;2022-11-13T02:32:15;5.68;;;1.40;;
74867;SDS011;63419;42.262;12.210;2022-11-13T02:34:43;4.47;;;1.25;;
74867;SDS011;63419;42.262;12.210;2022-11-13T02:37:10;4.93;;;1.20;;
74867;SDS011;63419;42.262;12.210;2022-11-13T02:39:42;4.60;;;1.20;;
74867;SDS011;63419;42.262;12.210;2022-11-13T02:44:37;3.83;;;0.60;;
74867;SDS011;63419;42.262;12.210;2022-11-13T02:47:09;4.50;;;1.10;;
74867;SDS011;63419;42.262;12.210;2022-11-13T02:52:03;4.63;;;0.82;;
74867;SDS011;63419;42.262;12.210;2022-11-13T02:54:31;4.28;;;1.02;;
74867;SDS011;63419;42.262;12.210;2022-11-13T02:57:01;5.28;;;1.02;;
74867;SDS011;63419;42.262;12.210;2022-11-13T02:59:29;3.67;;;0.95;;
74867;SDS011;63419;42.262;12.210;2022-11-13T03:01:59;2.70;;;0.60;;
74867;SDS011;63419;42.262;12.210;2022-11-13T03:04:29;2.75;;;0.73;;
74867;SDS011;63419;42.262;12.210;2022-11-13T03:07:18;3.60;;;1.00;;
74867;SDS011;63419;42.262;12.210;2022-11-13T03:09:45;4.38;;;1.02;;
74867;SDS011;63419;42.262;12.210;2022-11-13T03:12:18;4.88;;;0.80;;
74867;SDS011;63419;42.262;12.210;2022-11-13T03:14:45;4.05;;;1.00;;
74867;SDS011;63419;42.262;12.210;2022-11-13T03:17:15;4.43;;;0.88;;
74867;SDS011;63419;42.262;12.210;2022-11-13T03:19:59;3.30;;;0.70;;
74867;SDS011;63419;42.262;12.210;2022-11-13T03:22:29;4.80;;;1.20;;
74867;SDS011;63419;42.262;12.210;2022-11-13T03:24:59;4.50;;;0.77;;
74867;SDS011;63419;42.262;12.210;2022-11-13T03:27:32;4.60;;;1.02;;
74867;SDS011;63419;42.262;12.210;2022-11-13T03:29:59;4.90;;;1.10;;
74867;SDS011;63419;42.262;12.210;2022-11-13T03:32:26;3.58;;;0.82;;
74867;SDS011;63419;42.262;12.210;2022-11-13T03:34:54;4.50;;;0.98;;
74867;SDS011;63419;42.262;12.210;2022-11-13T03:37:24;4.50;;;1.00;;
74867;SDS011;63419;42.262;12.210;2022-11-13T03:39:57;3.13;;;1.00;;
74867;SDS011;63419;42.262;12.210;2022-11-13T03:42:27;4.80;;;0.90;;
74867;SDS011;63419;42.262;12.210;2022-11-13T03:44:56;3.97;;;0.90;;
74867;SDS011;63419;42.262;12.210;2022-11-13T03:47:23;4.63;;;0.98;;
74867;SDS011;63419;42.262;12.210;2022-11-13T03:49:50;5.30;;;0.95;;
74867;SDS011;63419;42.262;12.210;2022-11-13T03:52:21;4.55;;;1.08;;
74867;SDS011;63419;42.262;12.210;2022-11-13T03:54:48;3.80;;;0.82;;
74867;SDS011;63419;42.262;12.210;2022-11-13T03:57:17;3.92;;;1.00;;
74867;SDS011;63419;42.262;12.210;2022-11-13T03:59:44;4.35;;;1.02;;
74867;SDS011;63419;42.262;12.210;2022-11-13T04:04:40;4.18;;;0.95;;
74867;SDS011;63419;42.262;12.210;2022-11-13T04:07:07;3.60;;;0.93;;
74867;SDS011;63419;42.262;12.210;2022-11-13T04:09:37;2.85;;;0.70;;
74867;SDS011;63419;42.262;12.210;2022-11-13T04:12:07;4.90;;;1.10;;
74867;SDS011;63419;42.262;12.210;2022-11-13T04:14:36;4.50;;;0.82;;
74867;SDS011;63419;42.262;12.210;2022-11-13T04:17:03;4.40;;;1.05;;
74867;SDS011;63419;42.262;12.210;2022-11-13T04:19:34;3.55;;;1.00;;
74867;SDS011;63419;42.262;12.210;2022-11-13T04:22:02;3.13;;;0.95;;
74867;SDS011;63419;42.262;12.210;2022-11-13T04:24:30;5.25;;;0.82;;
74867;SDS011;63419;42.262;12.210;2022-11-13T04:27:03;3.67;;;0.82;;
74867;SDS011;63419;42.262;12.210;2022-11-13T04:31:58;3.78;;;1.00;;
74867;SDS011;63419;42.262;12.210;2022-11-13T04:34:28;3.45;;;0.90;;
74867;SDS011;63419;42.262;12.210;2022-11-13T04:36:55;3.40;;;0.73;;
74867;SDS011;63419;42.262;12.210;2022-11-13T04:39:23;4.32;;;1.13;;
74867;SDS011;63419;42.262;12.210;2022-11-13T04:41:50;4.22;;;0.98;;
74867;SDS011;63419;42.262;12.210;2022-11-13T04:47:11;4.32;;;0.80;;
74867;SDS011;63419;42.262;12.210;2022-11-13T04:49:40;5.13;;;0.95;;
74867;SDS011;63419;42.262;12.210;2022-11-13T04:52:07;6.50;;;1.20;;
74867;SDS011;63419;42.262;12.210;2022-11-13T04:54:43;4.32;;;1.23;;
74867;SDS011;63419;42.262;12.210;2022-11-13T04:57:10;4.97;;;0.98;;
74867;SDS011;63419;42.262;12.210;2022-11-13T04:59:55;4.50;;;0.93;;
74867;SDS011;63419;42.262;12.210;2022-11-13T05:02:23;3.78;;;0.85;;
74867;SDS011;63419;42.262;12.210;2022-11-13T05:05:12;3.13;;;0.75;;
74867;SDS011;63419;42.262;12.210;2022-11-13T05:07:39;4.40;;;1.00;;
74867;SDS011;63419;42.262;12.210;2022-11-13T05:10:08;4.10;;;0.82;;
74867;SDS011;63419;42.262;12.210;2022-11-13T05:12:40;3.45;;;0.80;;
74867;SDS011;63419;42.262;12.210;2022-11-13T05:15:09;4.40;;;0.98;;
74867;SDS011;63419;42.262;12.210;2022-11-13T05:17:47;4.70;;;1.00;;
74867;SDS011;63419;42.262;12.210;2022-11-13T05:20:19;3.60;;;0.82;;
74867;SDS011;63419;42.262;12.210;2022-11-13T05:22:46;5.70;;;1.00;;
74867;SDS011;63419;42.262;12.210;2022-11-13T05:25:14;4.00;;;1.00;;
74867;SDS011;63419;42.262;12.210;2022-11-13T05:27:47;7.85;;;1.15;;
74867;SDS011;63419;42.262;12.210;2022-11-13T05:30:14;3.10;;;0.70;;
74867;SDS011;63419;42.262;12.210;2022-11-13T05:32:44;3.67;;;0.80;;
74867;SDS011;63419;42.262;12.210;2022-11-13T05:35:12;4.22;;;0.85;;
74867;SDS011;63419;42.262;12.210;2022-11-13T05:37:43;3.95;;;1.05;;
74867;SDS011;63419;42.262;12.210;2022-11-13T05:40:18;3.80;;;1.15;;
74867;SDS011;63419;42.262;12.210;2022-11-13T05:42:45;5.18;;;1.08;;
74867;SDS011;63419;42.262;12.210;2022-11-13T05:45:12;4.60;;;1.00;;
74867;SDS011;63419;42.262;12.210;2022-11-13T05:47:41;3.30;;;0.85;;
74867;SDS011;63419;42.262;12.210;2022-11-13T05:50:08;4.43;;;1.00;;
74867;SDS011;63419;42.262;12.210;2022-11-13T05:52:36;6.68;;;1.13;;
74867;SDS011;63419;42.262;12.210;2022-11-13T05:55:04;5.78;;;1.10;;
74867;SDS011;63419;42.262;12.210;2022-11-13T05:57:32;3.85;;;0.82;;
74867;SDS011;63419;42.262;12.210;2022-11-13T06:00:08;4.35;;;0.93;;
74867;SDS011;63419;42.262;12.210;2022-11-13T06:02:36;5.47;;;0.90;;
74867;SDS011;63419;42.262;12.210;2022-11-13T06:05:06;5.72;;;1.00;;
74867;SDS011;63419;42.262;12.210;2022-11-13T06:07:43;3.80;;;1.20;;
74867;SDS011;63419;42.262;12.210;2022-11-13T06:10:10;5.22;;;1.27;;
74867;SDS011;63419;42.262;12.210;2022-11-13T06:12:40;3.70;;;1.00;;
74867;SDS011;63419;42.262;12.210;2022-11-13T06:15:07;5.18;;;1.38;;
74867;SDS011;63419;42.262;12.210;2022-11-13T06:17:44;4.68;;;1.17;;
74867;SDS011;63419;42.262;12.210;2022-11-13T06:20:11;3.38;;;0.90;;
74867;SDS011;63419;42.262;12.210;2022-11-13T06:22:42;3.92;;;0.90;;
74867;SDS011;63419;42.262;12.210;2022-11-13T06:25:11;4.93;;;1.30;;
74867;SDS011;63419;42.262;12.210;2022-11-13T06:27:39;4.03;;;1.13;;
74867;SDS011;63419;42.262;12.210;2022-11-13T06:30:09;5.03;;;1.33;;
74867;SDS011;63419;42.262;12.210;2022-11-13T06:32:39;5.20;;;1.55;;
74867;SDS011;63419;42.262;12.210;2022-11-13T06:35:06;6.32;;;1.65;;
74867;SDS011;63419;42.262;12.210;2022-11-13T06:37:36;4.93;;;1.25;;
74867;SDS011;63419;42.262;12.210;2022-11-13T06:40:04;4.05;;;1.25;;
74867;SDS011;63419;42.262;12.210;2022-11-13T06:42:40;5.22;;;1.40;;
74867;SDS011;63419;42.262;12.210;2022-11-13T06:45:09;5.07;;;1.23;;
74867;SDS011;63419;42.262;12.210;2022-11-13T06:47:37;4.47;;;0.98;;
74867;SDS011;63419;42.262;12.210;2022-11-13T06:50:04;5.65;;;1.10;;
74867;SDS011;63419;42.262;12.210;2022-11-13T06:52:39;4.63;;;1.27;;
74867;SDS011;63419;42.262;12.210;2022-11-13T06:55:06;4.07;;;1.02;;
74867;SDS011;63419;42.262;12.210;2022-11-13T06:57:34;5.97;;;1.42;;
74867;SDS011;63419;42.262;12.210;2022-11-13T07:00:04;3.92;;;1.00;;
74867;SDS011;63419;42.262;12.210;2022-11-13T07:02:41;5.03;;;1.33;;
74867;SDS011;63419;42.262;12.210;2022-11-13T07:05:08;4.75;;;1.30;;
74867;SDS011;63419;42.262;12.210;2022-11-13T07:07:37;5.35;;;1.55;;
74867;SDS011;63419;42.262;12.210;2022-11-13T07:10:07;5.20;;;1.70;;
74867;SDS011;63419;42.262;12.210;2022-11-13T07:15:10;4.90;;;1.58;;
74867;SDS011;63419;42.262;12.210;2022-11-13T07:17:39;5.93;;;1.83;;
74867;SDS011;63419;42.262;12.210;2022-11-13T07:20:06;4.35;;;1.50;;
74867;SDS011;63419;42.262;12.210;2022-11-13T07:22:34;4.78;;;1.85;;
74867;SDS011;63419;42.262;12.210;2022-11-13T07:25:07;5.82;;;1.80;;
74867;SDS011;63419;42.262;12.210;2022-11-13T07:27:35;5.35;;;1.55;;
74867;SDS011;63419;42.262;12.210;2022-11-13T07:30:03;4.43;;;1.17;;
74867;SDS011;63419;42.262;12.210;2022-11-13T07:32:34;5.72;;;1.75;;
74867;SDS011;63419;42.262;12.210;2022-11-13T07:35:02;6.13;;;1.77;;
74867;SDS011;63419;42.262;12.210;2022-11-13T07:37:38;5.05;;;1.83;;
74867;SDS011;63419;42.262;12.210;2022-11-13T07:40:06;5.82;;;1.65;;
74867;SDS011;63419;42.262;12.210;2022-11-13T07:42:34;5.00;;;1.58;;
74867;SDS011;63419;42.262;12.210;2022-11-13T07:45:02;4.72;;;1.50;;
74867;SDS011;63419;42.262;12.210;2022-11-13T07:47:38;4.88;;;1.50;;
74867;SDS011;63419;42.262;12.210;2022-11-13T07:50:08;4.40;;;1.42;;
74867;SDS011;63419;42.262;12.210;2022-11-13T07:52:36;5.10;;;1.42;;
74867;SDS011;63419;42.262;12.210;2022-11-13T07:55:06;5.30;;;1.67;;
74867;SDS011;63419;42.262;12.210;2022-11-13T07:57:40;6.05;;;2.00;;
74867;SDS011;63419;42.262;12.210;2022-11-13T08:00:09;5.32;;;1.45;;
74867;SDS011;63419;42.262;12.210;2022-11-13T08:02:39;5.70;;;1.83;;
74867;SDS011;63419;42.262;12.210;2022-11-13T08:05:08;6.53;;;1.67;;
74867;SDS011;63419;42.262;12.210;2022-11-13T08:07:37;4.47;;;1.48;;
74867;SDS011;63419;42.262;12.210;2022-11-13T08:12:35;4.10;;;1.25;;
74867;SDS011;63419;42.262;12.210;2022-11-13T08:15:04;5.88;;;1.98;;
74867;SDS011;63419;42.262;12.210;2022-11-13T08:17:38;4.63;;;1.60;;
74867;SDS011;63419;42.262;12.210;2022-11-13T08:22:45;6.10;;;1.58;;
74867;SDS011;63419;42.262;12.210;2022-11-13T08:25:13;5.60;;;1.63;;
74867;SDS011;63419;42.262;12.210;2022-11-13T08:27:45;4.80;;;1.65;;
74867;SDS011;63419;42.262;12.210;2022-11-13T08:30:13;7.13;;;2.05;;
74867;SDS011;63419;42.262;12.210;2022-11-13T08:32:47;7.97;;;2.30;;
74867;SDS011;63419;42.262;12.210;2022-11-13T08:35:15;5.88;;;1.77;;
74867;SDS011;63419;42.262;12.210;2022-11-13T08:37:52;5.95;;;2.20;;
74867;SDS011;63419;42.262;12.210;2022-11-13T08:42:49;5.38;;;1.83;;
74867;SDS011;63419;42.262;12.210;2022-11-13T08:45:19;5.57;;;2.30;;
74867;SDS011;63419;42.262;12.210;2022-11-13T08:47:59;5.35;;;2.08;;
74867;SDS011;63419;42.262;12.210;2022-11-13T08:50:31;5.05;;;1.83;;
74867;SDS011;63419;42.262;12.210;2022-11-13T08:53:01;5.25;;;1.90;;
74867;SDS011;63419;42.262;12.210;2022-11-13T08:55:30;7.63;;;2.40;;
74867;SDS011;63419;42.262;12.210;2022-11-13T08:57:59;6.38;;;2.00;;
74867;SDS011;63419;42.262;12.210;2022-11-13T09:00:31;5.88;;;2.17;;
74867;SDS011;63419;42.262;12.210;2022-11-13T09:03:00;7.50;;;2.47;;
74867;SDS011;63419;42.262;12.210;2022-11-13T09:05:29;5.85;;;2.33;;
74867;SDS011;63419;42.262;12.210;2022-11-13T09:07:57;5.65;;;1.95;;
74867;SDS011;63419;42.262;12.210;2022-11-13T09:10:30;5.65;;;2.25;;
74867;SDS011;63419;42.262;12.210;2022-11-13T09:13:03;5.32;;;1.95;;
74867;SDS011;63419;42.262;12.210;2022-11-13T09:15:35;6.32;;;2.20;;
74867;SDS011;63419;42.262;12.210;2022-11-13T09:18:08;4.65;;;1.73;;
74867;SDS011;63419;42.262;12.210;2022-11-13T09:20:38;7.25;;;2.00;;
74867;SDS011;63419;42.262;12.210;2022-11-13T09:23:07;6.28;;;1.70;;
74867;SDS011;63419;42.262;12.210;2022-11-13T09:25:38;6.43;;;2.30;;
74867;SDS011;63419;42.262;12.210;2022-11-13T09:28:05;7.15;;;2.20;;
74867;SDS011;63419;42.262;12.210;2022-11-13T09:30:36;7.40;;;2.78;;
74867;SDS011;63419;42.262;12.210;2022-11-13T09:33:11;5.43;;;1.85;;
74867;SDS011;63419;42.262;12.210;2022-11-13T09:35:42;5.35;;;1.92;;
74867;SDS011;63419;42.262;12.210;2022-11-13T09:38:12;5.15;;;1.60;;
74867;SDS011;63419;42.262;12.210;2022-11-13T09:40:46;6.00;;;2.30;;
74867;SDS011;63419;42.262;12.210;2022-11-13T09:49:28;5.70;;;1.70;;
74867;SDS011;63419;42.262;12.210;2022-11-13T09:52:09;7.82;;;2.95;;
74867;SDS011;63419;42.262;12.210;2022-11-13T09:55:01;7.63;;;3.15;;
74867;SDS011;63419;42.262;12.210;2022-11-13T10:00:20;5.28;;;2.50;;
74867;SDS011;63419;42.262;12.210;2022-11-13T10:02:57;4.57;;;1.80;;
74867;SDS011;63419;42.262;12.210;2022-11-13T10:06:18;4.22;;;1.40;;
74867;SDS011;63419;42.262;12.210;2022-11-13T10:09:03;6.50;;;2.08;;
74867;SDS011;63419;42.262;12.210;2022-11-13T10:11:53;6.25;;;2.28;;
74867;SDS011;63419;42.262;12.210;2022-11-13T10:14:35;7.13;;;2.33;;
74867;SDS011;63419;42.262;12.210;2022-11-13T10:23:01;9.43;;;3.30;;
74867;SDS011;63419;42.262;12.210;2022-11-13T10:25:56;7.10;;;2.22;;
74867;SDS011;63419;42.262;12.210;2022-11-13T10:29:23;9.80;;;3.92;;
74867;SDS011;63419;42.262;12.210;2022-11-13T10:31:46;6.05;;;2.55;;
74867;SDS011;63419;42.262;12.210;2022-11-13T10:34:18;6.38;;;2.53;;
74867;SDS011;63419;42.262;12.210;2022-11-13T10:40:01;5.93;;;2.17;;
74867;SDS011;63419;42.262;12.210;2022-11-13T10:42:32;6.30;;;2.30;;
74867;SDS011;63419;42.262;12.210;2022-11-13T10:47:47;7.60;;;2.88;;
74867;SDS011;63419;42.262;12.210;2022-11-13T10:50:34;5.38;;;2.33;;
74867;SDS011;63419;42.262;12.210;2022-11-13T10:53:02;7.28;;;2.03;;
74867;SDS011;63419;42.262;12.210;2022-11-13T10:55:41;6.82;;;2.33;;
74867;SDS011;63419;42.262;12.210;2022-11-13T10:58:12;4.93;;;1.58;;
74867;SDS011;63419;42.262;12.210;2022-11-13T11:00:44;4.93;;;1.48;;
74867;SDS011;63419;42.262;12.210;2022-11-13T11:03:22;5.53;;;1.55;;
74867;SDS011;63419;42.262;12.210;2022-11-13T11:05:57;5.22;;;1.83;;
74867;SDS011;63419;42.262;12.210;2022-11-13T11:08:28;4.97;;;1.77;;
74867;SDS011;63419;42.262;12.210;2022-11-13T11:11:16;5.57;;;2.17;;
74867;SDS011;63419;42.262;12.210;2022-11-13T11:14:25;4.75;;;1.80;;
74867;SDS011;63419;42.262;12.210;2022-11-13T11:17:04;4.93;;;1.73;;
74867;SDS011;63419;42.262;12.210;2022-11-13T11:19:35;5.72;;;2.20;;
74867;SDS011;63419;42.262;12.210;2022-11-13T11:22:18;6.13;;;2.10;;
74867;SDS011;63419;42.262;12.210;2022-11-13T11:25:02;4.68;;;2.00;;
74867;SDS011;63419;42.262;12.210;2022-11-13T11:27:53;5.50;;;1.98;;
74867;SDS011;63419;42.262;12.210;2022-11-13T11:30:39;5.88;;;2.05;;
74867;SDS011;63419;42.262;12.210;2022-11-13T11:33:26;5.53;;;1.50;;
74867;SDS011;63419;42.262;12.210;2022-11-13T11:39:53;5.43;;;1.73;;
74867;SDS011;63419;42.262;12.210;2022-11-13T11:42:47;5.18;;;2.00;;
74867;SDS011;63419;42.262;12.210;2022-11-13T11:46:10;5.85;;;1.85;;
74867;SDS011;63419;42.262;12.210;2022-11-13T11:48:39;5.82;;;1.65;;
74867;SDS011;63419;42.262;12.210;2022-11-13T11:56:54;5.50;;;1.70;;
74867;SDS011;63419;42.262;12.210;2022-11-13T12:00:08;4.60;;;1.77;;
74867;SDS011;63419;42.262;12.210;2022-11-13T12:06:03;5.07;;;1.88;;
74867;SDS011;63419;42.262;12.210;2022-11-13T12:08:50;5.05;;;1.70;;
74867;SDS011;63419;42.262;12.210;2022-11-13T12:12:13;4.60;;;1.80;;
74867;SDS011;63419;42.262;12.210;2022-11-13T12:15:08;5.78;;;2.30;;
74867;SDS011;63419;42.262;12.210;2022-11-13T12:18:02;7.35;;;2.00;;
74867;SDS011;63419;42.262;12.210;2022-11-13T12:27:28;5.18;;;1.83;;
74867;SDS011;63419;42.262;12.210;2022-11-13T12:35:57;5.22;;;1.50;;
74867;SDS011;63419;42.262;12.210;2022-11-13T12:44:25;5.35;;;1.40;;
74867;SDS011;63419;42.262;12.210;2022-11-13T12:47:32;4.82;;;1.40;;
74867;SDS011;63419;42.262;12.210;2022-11-13T12:50:19;4.07;;;1.60;;
74867;SDS011;63419;42.262;12.210;2022-11-13T12:53:02;4.80;;;1.70;;
74867;SDS011;63419;42.262;12.210;2022-11-13T12:55:36;7.63;;;2.35;;
74867;SDS011;63419;42.262;12.210;2022-11-13T12:58:26;5.30;;;1.85;;
74867;SDS011;63419;42.262;12.210;2022-11-13T13:10:15;5.40;;;1.63;;
74867;SDS011;63419;42.262;12.210;2022-11-13T13:16:21;4.22;;;1.42;;
74867;SDS011;63419;42.262;12.210;2022-11-13T13:19:07;4.82;;;1.70;;
74867;SDS011;63419;42.262;12.210;2022-11-13T13:21:59;5.28;;;2.05;;
74867;SDS011;63419;42.262;12.210;2022-11-13T13:24:37;5.93;;;2.56;;
74867;SDS011;63419;42.262;12.210;2022-11-13T13:27:26;6.43;;;2.80;;
74867;SDS011;63419;42.262;12.210;2022-11-13T13:29:59;7.40;;;2.55;;
74867;SDS011;63419;42.262;12.210;2022-11-13T13:32:48;6.95;;;2.78;;
74867;SDS011;63419;42.262;12.210;2022-11-13T13:35:40;6.10;;;2.50;;
74867;SDS011;63419;42.262;12.210;2022-11-13T13:38:26;7.90;;;3.03;;
74867;SDS011;63419;42.262;12.210;2022-11-13T13:47:42;11.50;;;3.70;;
74867;SDS011;63419;42.262;12.210;2022-11-13T13:50:20;9.40;;;3.33;;
74867;SDS011;63419;42.262;12.210;2022-11-13T13:55:58;10.07;;;3.53;;
74867;SDS011;63419;42.262;12.210;2022-11-13T13:58:31;6.40;;;2.35;;
74867;SDS011;63419;42.262;12.210;2022-11-13T14:01:03;6.38;;;2.35;;
74867;SDS011;63419;42.262;12.210;2022-11-13T14:03:48;5.65;;;2.47;;
74867;SDS011;63419;42.262;12.210;2022-11-13T14:06:28;5.80;;;2.58;;
74867;SDS011;63419;42.262;12.210;2022-11-13T14:09:06;6.28;;;2.83;;
74867;SDS011;63419;42.262;12.210;2022-11-13T14:11:46;5.72;;;2.35;;
74867;SDS011;63419;42.262;12.210;2022-11-13T14:14:22;6.82;;;2.17;;
74867;SDS011;63419;42.262;12.210;2022-11-13T14:16:58;5.85;;;2.47;;
74867;SDS011;63419;42.262;12.210;2022-11-13T14:19:32;7.05;;;2.28;;
74867;SDS011;63419;42.262;12.210;2022-11-13T14:21:59;7.43;;;2.53;;
74867;SDS011;63419;42.262;12.210;2022-11-13T14:24:44;6.68;;;2.13;;
74867;SDS011;63419;42.262;12.210;2022-11-13T14:28:03;5.75;;;1.95;;
74867;SDS011;63419;42.262;12.210;2022-11-13T14:30:44;6.40;;;2.70;;
74867;SDS011;63419;42.262;12.210;2022-11-13T14:40:25;7.50;;;2.13;;
74867;SDS011;63419;42.262;12.210;2022-11-13T14:43:07;7.35;;;1.83;;
74867;SDS011;63419;42.262;12.210;2022-11-13T14:46:30;7.47;;;2.33;;
74867;SDS011;63419;42.262;12.210;2022-11-13T14:48:52;5.47;;;2.33;;
74867;SDS011;63419;42.262;12.210;2022-11-13T14:51:29;7.35;;;2.63;;
74867;SDS011;63419;42.262;12.210;2022-11-13T14:53:59;5.72;;;2.35;;
74867;SDS011;63419;42.262;12.210;2022-11-13T14:56:38;7.65;;;2.65;;
74867;SDS011;63419;42.262;12.210;2022-11-13T15:02:10;10.55;;;3.42;;
74867;SDS011;63419;42.262;12.210;2022-11-13T15:04:39;9.13;;;2.90;;
74867;SDS011;63419;42.262;12.210;2022-11-13T15:07:27;8.32;;;3.42;;
74867;SDS011;63419;42.262;12.210;2022-11-13T15:09:59;9.32;;;2.75;;
74867;SDS011;63419;42.262;12.210;2022-11-13T15:12:31;7.50;;;2.80;;
74867;SDS011;63419;42.262;12.210;2022-11-13T15:15:00;8.65;;;2.40;;
74867;SDS011;63419;42.262;12.210;2022-11-13T15:17:27;8.02;;;2.90;;
74867;SDS011;63419;42.262;12.210;2022-11-13T15:19:57;8.40;;;2.95;;
74867;SDS011;63419;42.262;12.210;2022-11-13T15:22:24;7.90;;;2.50;;
74867;SDS011;63419;42.262;12.210;2022-11-13T15:24:54;8.07;;;2.47;;
74867;SDS011;63419;42.262;12.210;2022-11-13T15:29:52;7.93;;;2.90;;
74867;SDS011;63419;42.262;12.210;2022-11-13T15:32:20;7.65;;;2.53;;
74867;SDS011;63419;42.262;12.210;2022-11-13T15:34:48;7.45;;;2.55;;
74867;SDS011;63419;42.262;12.210;2022-11-13T15:39:43;5.95;;;2.38;;
74867;SDS011;63419;42.262;12.210;2022-11-13T15:42:16;7.22;;;2.40;;
74867;SDS011;63419;42.262;12.210;2022-11-13T15:44:55;6.28;;;2.53;;
74867;SDS011;63419;42.262;12.210;2022-11-13T15:47:32;7.78;;;2.67;;
74867;SDS011;63419;42.262;12.210;2022-11-13T15:50:05;7.00;;;2.65;;
74867;SDS011;63419;42.262;12.210;2022-11-13T15:52:40;8.32;;;3.45;;
74867;SDS011;63419;42.262;12.210;2022-11-13T15:55:27;11.57;;;3.42;;
74867;SDS011;63419;42.262;12.210;2022-11-13T15:57:57;8.55;;;3.60;;
74867;SDS011;63419;42.262;12.210;2022-11-13T16:00:30;11.05;;;4.00;;
74867;SDS011;63419;42.262;12.210;2022-11-13T16:03:02;9.93;;;4.07;;
74867;SDS011;63419;42.262;12.210;2022-11-13T16:05:42;12.18;;;4.53;;
74867;SDS011;63419;42.262;12.210;2022-11-13T16:08:12;10.50;;;4.93;;
74867;SDS011;63419;42.262;12.210;2022-11-13T16:10:41;11.52;;;4.13;;
74867;SDS011;63419;42.262;12.210;2022-11-13T16:13:16;9.88;;;4.43;;
74867;SDS011;63419;42.262;12.210;2022-11-13T16:15:45;9.23;;;3.78;;
74867;SDS011;63419;42.262;12.210;2022-11-13T16:18:24;9.30;;;3.67;;
74867;SDS011;63419;42.262;12.210;2022-11-13T16:21:00;12.93;;;5.25;;
74867;SDS011;63419;42.262;12.210;2022-11-13T16:23:29;12.70;;;4.55;;
74867;SDS011;63419;42.262;12.210;2022-11-13T16:26:02;13.05;;;4.53;;
74867;SDS011;63419;42.262;12.210;2022-11-13T16:28:40;15.93;;;5.30;;
74867;SDS011;63419;42.262;12.210;2022-11-13T16:31:36;15.48;;;5.18;;
74867;SDS011;63419;42.262;12.210;2022-11-13T16:34:04;13.85;;;5.65;;
74867;SDS011;63419;42.262;12.210;2022-11-13T16:36:34;14.98;;;5.03;;
74867;SDS011;63419;42.262;12.210;2022-11-13T16:39:03;12.73;;;3.92;;
74867;SDS011;63419;42.262;12.210;2022-11-13T16:41:32;38.35;;;18.73;;
74867;SDS011;63419;42.262;12.210;2022-11-13T16:44:03;24.65;;;11.93;;
74867;SDS011;63419;42.262;12.210;2022-11-13T16:46:34;19.52;;;7.43;;
74867;SDS011;63419;42.262;12.210;2022-11-13T16:51:45;10.35;;;3.25;;
74867;SDS011;63419;42.262;12.210;2022-11-13T16:54:14;8.75;;;3.03;;
74867;SDS011;63419;42.262;12.210;2022-11-13T16:56:52;8.43;;;3.15;;
74867;SDS011;63419;42.262;12.210;2022-11-13T16:59:20;8.73;;;2.72;;
74867;SDS011;63419;42.262;12.210;2022-11-13T17:01:53;8.50;;;3.17;;
74867;SDS011;63419;42.262;12.210;2022-11-13T17:04:21;7.05;;;2.78;;
74867;SDS011;63419;42.262;12.210;2022-11-13T17:06:50;7.45;;;2.80;;
74867;SDS011;63419;42.262;12.210;2022-11-13T17:09:23;9.15;;;3.10;;
74867;SDS011;63419;42.262;12.210;2022-11-13T17:11:50;12.32;;;3.83;;
74867;SDS011;63419;42.262;12.210;2022-11-13T17:14:17;10.70;;;4.03;;
74867;SDS011;63419;42.262;12.210;2022-11-13T17:16:47;14.95;;;5.28;;